Terminal Aerodrome Forecast
Issued by NWS Cleveland, OH

Home | Current Version | Previous Version | Graphics & Text | Print | Product List | Glossary On
Versions: 1 2 3 4 5 6 7 8 9 10 11 12 13 14 15 16 17 18
859
FTUS41 KCLE 140539
TAFMFD
TAF
KMFD 140539Z 1406/1506 17004KT P6SM SKC
     FM140900 16003KT 5SM BR SKC
     FM141300 18008KT P6SM SCT070
     FM150400 19012KT P6SM BKN200 WS020/21040KT=

USA.gov is the U.S. government's official web portal to all federal, state and local government web resources and services.